sensor_id;sensor_type;location;lat;lon;timestamp;temperature;humidity
45685;DHT22;46836;48.388;16.210;2022-07-23T00:01:29;25.00;97.80
45685;DHT22;46836;48.388;16.210;2022-07-23T00:03:56;25.00;97.90
45685;DHT22;46836;48.388;16.210;2022-07-23T00:06:24;25.00;98.00
45685;DHT22;46836;48.388;16.210;2022-07-23T00:08:51;25.00;98.20
45685;DHT22;46836;48.388;16.210;2022-07-23T00:11:18;25.10;98.40
45685;DHT22;46836;48.388;16.210;2022-07-23T00:13:46;25.10;98.40
45685;DHT22;46836;48.388;16.210;2022-07-23T00:16:13;25.10;98.30
45685;DHT22;46836;48.388;16.210;2022-07-23T00:18:40;25.00;98.10
45685;DHT22;46836;48.388;16.210;2022-07-23T00:21:07;25.00;98.70
45685;DHT22;46836;48.388;16.210;2022-07-23T00:23:34;25.00;98.50
45685;DHT22;46836;48.388;16.210;2022-07-23T00:26:01;25.00;98.70
45685;DHT22;46836;48.388;16.210;2022-07-23T00:28:28;25.00;98.80
45685;DHT22;46836;48.388;16.210;2022-07-23T00:30:55;24.90;99.00
45685;DHT22;46836;48.388;16.210;2022-07-23T00:33:22;24.90;99.10
45685;DHT22;46836;48.388;16.210;2022-07-23T00:35:49;24.90;99.90
45685;DHT22;46836;48.388;16.210;2022-07-23T00:38:16;24.80;99.90
45685;DHT22;46836;48.388;16.210;2022-07-23T00:40:43;24.70;99.90
45685;DHT22;46836;48.388;16.210;2022-07-23T00:43:10;24.70;99.90
45685;DHT22;46836;48.388;16.210;2022-07-23T00:45:37;24.60;99.90
45685;DHT22;46836;48.388;16.210;2022-07-23T00:48:05;24.50;99.90
45685;DHT22;46836;48.388;16.210;2022-07-23T00:50:32;24.50;99.90
45685;DHT22;46836;48.388;16.210;2022-07-23T00:52:59;24.50;99.90
45685;DHT22;46836;48.388;16.210;2022-07-23T00:55:26;24.40;99.90
45685;DHT22;46836;48.388;16.210;2022-07-23T00:57:55;24.40;99.90
45685;DHT22;46836;48.388;16.210;2022-07-23T01:00:22;24.40;99.90
45685;DHT22;46836;48.388;16.210;2022-07-23T01:02:49;24.40;99.90
45685;DHT22;46836;48.388;16.210;2022-07-23T01:05:16;24.30;99.90
45685;DHT22;46836;48.388;16.210;2022-07-23T01:07:49;24.30;99.90
45685;DHT22;46836;48.388;16.210;2022-07-23T01:10:22;24.20;99.90
45685;DHT22;46836;48.388;16.210;2022-07-23T01:13:09;24.20;99.90
45685;DHT22;46836;48.388;16.210;2022-07-23T01:15:38;24.20;99.90
45685;DHT22;46836;48.388;16.210;2022-07-23T01:18:06;24.10;99.90
45685;DHT22;46836;48.388;16.210;2022-07-23T01:20:34;24.10;99.90
45685;DHT22;46836;48.388;16.210;2022-07-23T01:23:01;24.00;99.90
45685;DHT22;46836;48.388;16.210;2022-07-23T01:25:28;24.00;99.90
45685;DHT22;46836;48.388;16.210;2022-07-23T01:27:55;23.90;99.90
45685;DHT22;46836;48.388;16.210;2022-07-23T01:30:22;23.80;99.90
45685;DHT22;46836;48.388;16.210;2022-07-23T01:32:49;23.70;99.90
45685;DHT22;46836;48.388;16.210;2022-07-23T01:35:17;23.70;99.90
45685;DHT22;46836;48.388;16.210;2022-07-23T01:37:44;23.60;99.90
45685;DHT22;46836;48.388;16.210;2022-07-23T01:40:11;23.60;99.90
45685;DHT22;46836;48.388;16.210;2022-07-23T01:42:38;23.50;99.90
45685;DHT22;46836;48.388;16.210;2022-07-23T01:45:05;23.60;99.90
45685;DHT22;46836;48.388;16.210;2022-07-23T01:47:33;23.60;99.90
45685;DHT22;46836;48.388;16.210;2022-07-23T01:50:00;23.60;99.90
45685;DHT22;46836;48.388;16.210;2022-07-23T01:52:27;23.60;99.90
45685;DHT22;46836;48.388;16.210;2022-07-23T01:54:54;23.60;99.90
45685;DHT22;46836;48.388;16.210;2022-07-23T01:57:21;23.60;99.90
45685;DHT22;46836;48.388;16.210;2022-07-23T01:59:48;23.60;99.90
45685;DHT22;46836;48.388;16.210;2022-07-23T02:02:16;23.60;99.90
45685;DHT22;46836;48.388;16.210;2022-07-23T02:04:43;23.70;99.90
45685;DHT22;46836;48.388;16.210;2022-07-23T02:07:10;23.60;99.90
45685;DHT22;46836;48.388;16.210;2022-07-23T02:09:37;23.70;99.90
45685;DHT22;46836;48.388;16.210;2022-07-23T02:12:04;23.70;99.90
45685;DHT22;46836;48.388;16.210;2022-07-23T02:14:31;23.70;99.90
45685;DHT22;46836;48.388;16.210;2022-07-23T02:16:58;23.60;99.90
45685;DHT22;46836;48.388;16.210;2022-07-23T02:19:25;23.60;99.90
45685;DHT22;46836;48.388;16.210;2022-07-23T02:21:53;23.60;99.90
45685;DHT22;46836;48.388;16.210;2022-07-23T02:24:21;23.60;99.90
45685;DHT22;46836;48.388;16.210;2022-07-23T02:26:48;23.60;99.90
45685;DHT22;46836;48.388;16.210;2022-07-23T02:29:15;23.60;99.90
45685;DHT22;46836;48.388;16.210;2022-07-23T02:31:42;23.60;99.90
45685;DHT22;46836;48.388;16.210;2022-07-23T02:34:10;23.60;99.90
45685;DHT22;46836;48.388;16.210;2022-07-23T02:36:38;23.60;99.90
45685;DHT22;46836;48.388;16.210;2022-07-23T02:39:07;23.60;99.90
45685;DHT22;46836;48.388;16.210;2022-07-23T02:41:34;23.50;99.90
45685;DHT22;46836;48.388;16.210;2022-07-23T02:44:01;23.40;99.90
45685;DHT22;46836;48.388;16.210;2022-07-23T02:46:28;23.40;99.90
45685;DHT22;46836;48.388;16.210;2022-07-23T02:48:55;23.30;99.90
45685;DHT22;46836;48.388;16.210;2022-07-23T02:51:22;23.30;99.90
45685;DHT22;46836;48.388;16.210;2022-07-23T02:53:49;23.20;99.90
45685;DHT22;46836;48.388;16.210;2022-07-23T02:56:16;23.20;99.90
45685;DHT22;46836;48.388;16.210;2022-07-23T02:58:43;23.20;99.90
45685;DHT22;46836;48.388;16.210;2022-07-23T03:01:10;23.30;99.90
45685;DHT22;46836;48.388;16.210;2022-07-23T03:03:38;23.30;99.90
45685;DHT22;46836;48.388;16.210;2022-07-23T03:06:05;23.40;99.90
45685;DHT22;46836;48.388;16.210;2022-07-23T03:08:32;23.40;99.90
45685;DHT22;46836;48.388;16.210;2022-07-23T03:10:59;23.40;99.90
45685;DHT22;46836;48.388;16.210;2022-07-23T03:13:26;23.50;99.90
45685;DHT22;46836;48.388;16.210;2022-07-23T03:15:54;23.50;99.90
45685;DHT22;46836;48.388;16.210;2022-07-23T03:18:21;23.60;99.90
45685;DHT22;46836;48.388;16.210;2022-07-23T03:20:48;23.60;99.90
45685;DHT22;46836;48.388;16.210;2022-07-23T03:23:16;23.70;99.90
45685;DHT22;46836;48.388;16.210;2022-07-23T03:25:44;23.70;99.90
45685;DHT22;46836;48.388;16.210;2022-07-23T03:28:18;23.80;99.90
45685;DHT22;46836;48.388;16.210;2022-07-23T03:30:46;23.80;99.90
45685;DHT22;46836;48.388;16.210;2022-07-23T03:33:15;23.80;99.90
45685;DHT22;46836;48.388;16.210;2022-07-23T03:35:44;23.80;99.90
45685;DHT22;46836;48.388;16.210;2022-07-23T03:38:13;23.90;99.90
45685;DHT22;46836;48.388;16.210;2022-07-23T03:40:41;23.90;99.90
45685;DHT22;46836;48.388;16.210;2022-07-23T03:43:08;23.80;99.90
45685;DHT22;46836;48.388;16.210;2022-07-23T03:45:35;23.80;99.90
45685;DHT22;46836;48.388;16.210;2022-07-23T03:48:02;23.80;99.90
45685;DHT22;46836;48.388;16.210;2022-07-23T03:50:29;23.80;99.90
45685;DHT22;46836;48.388;16.210;2022-07-23T03:52:56;23.80;99.90
45685;DHT22;46836;48.388;16.210;2022-07-23T03:55:23;23.90;99.90
45685;DHT22;46836;48.388;16.210;2022-07-23T03:57:50;23.90;99.90
45685;DHT22;46836;48.388;16.210;2022-07-23T04:00:17;23.90;99.90
45685;DHT22;46836;48.388;16.210;2022-07-23T04:02:45;23.90;99.90
45685;DHT22;46836;48.388;16.210;2022-07-23T04:05:12;23.90;99.90
45685;DHT22;46836;48.388;16.210;2022-07-23T04:07:39;23.90;99.90
45685;DHT22;46836;48.388;16.210;2022-07-23T04:10:07;23.90;99.90
45685;DHT22;46836;48.388;16.210;2022-07-23T04:12:34;23.90;99.90
45685;DHT22;46836;48.388;16.210;2022-07-23T04:15:02;24.00;99.90
45685;DHT22;46836;48.388;16.210;2022-07-23T04:17:29;24.00;99.90
45685;DHT22;46836;48.388;16.210;2022-07-23T04:19:56;24.10;99.90
45685;DHT22;46836;48.388;16.210;2022-07-23T04:22:24;24.10;99.90
45685;DHT22;46836;48.388;16.210;2022-07-23T04:24:51;24.10;99.90
45685;DHT22;46836;48.388;16.210;2022-07-23T04:27:18;24.20;99.90
45685;DHT22;46836;48.388;16.210;2022-07-23T04:29:45;24.20;99.90
45685;DHT22;46836;48.388;16.210;2022-07-23T04:32:12;24.30;99.90
45685;DHT22;46836;48.388;16.210;2022-07-23T04:34:39;24.30;99.90
45685;DHT22;46836;48.388;16.210;2022-07-23T04:37:06;24.20;99.90
45685;DHT22;46836;48.388;16.210;2022-07-23T04:39:33;24.20;99.90
45685;DHT22;46836;48.388;16.210;2022-07-23T04:42:00;24.30;99.90
45685;DHT22;46836;48.388;16.210;2022-07-23T04:44:28;24.30;99.90
45685;DHT22;46836;48.388;16.210;2022-07-23T04:46:55;24.30;99.90
45685;DHT22;46836;48.388;16.210;2022-07-23T04:49:22;24.40;99.90
45685;DHT22;46836;48.388;16.210;2022-07-23T04:51:49;24.40;99.90
45685;DHT22;46836;48.388;16.210;2022-07-23T04:54:16;24.40;99.90
45685;DHT22;46836;48.388;16.210;2022-07-23T04:56:44;24.40;99.90
45685;DHT22;46836;48.388;16.210;2022-07-23T04:59:11;24.40;99.90
45685;DHT22;46836;48.388;16.210;2022-07-23T05:01:38;24.50;99.90
45685;DHT22;46836;48.388;16.210;2022-07-23T05:04:05;24.50;99.90
45685;DHT22;46836;48.388;16.210;2022-07-23T05:06:32;24.50;99.90
45685;DHT22;46836;48.388;16.210;2022-07-23T05:09:00;24.60;99.90
45685;DHT22;46836;48.388;16.210;2022-07-23T05:11:27;24.70;99.90
45685;DHT22;46836;48.388;16.210;2022-07-23T05:13:54;26.20;99.90
45685;DHT22;46836;48.388;16.210;2022-07-23T05:16:22;28.50;99.90
45685;DHT22;46836;48.388;16.210;2022-07-23T05:18:49;30.80;99.90
45685;DHT22;46836;48.388;16.210;2022-07-23T05:21:16;32.80;99.90
45685;DHT22;46836;48.388;16.210;2022-07-23T05:23:43;34.00;99.90
45685;DHT22;46836;48.388;16.210;2022-07-23T05:26:10;35.20;99.90
45685;DHT22;46836;48.388;16.210;2022-07-23T05:28:37;33.60;99.90
45685;DHT22;46836;48.388;16.210;2022-07-23T05:31:04;31.80;99.90
45685;DHT22;46836;48.388;16.210;2022-07-23T05:33:31;30.50;99.90
45685;DHT22;46836;48.388;16.210;2022-07-23T05:36:02;29.60;99.90
45685;DHT22;46836;48.388;16.210;2022-07-23T05:38:31;28.90;99.90
45685;DHT22;46836;48.388;16.210;2022-07-23T05:40:58;28.40;99.90
45685;DHT22;46836;48.388;16.210;2022-07-23T05:43:26;28.00;99.90
45685;DHT22;46836;48.388;16.210;2022-07-23T05:45:53;27.70;99.90
45685;DHT22;46836;48.388;16.210;2022-07-23T05:48:20;27.50;99.90
45685;DHT22;46836;48.388;16.210;2022-07-23T05:50:48;27.40;99.90
45685;DHT22;46836;48.388;16.210;2022-07-23T05:53:15;27.40;99.90
45685;DHT22;46836;48.388;16.210;2022-07-23T05:55:42;27.40;99.90
45685;DHT22;46836;48.388;16.210;2022-07-23T05:58:09;27.40;99.90
45685;DHT22;46836;48.388;16.210;2022-07-23T06:00:36;27.30;99.90
45685;DHT22;46836;48.388;16.210;2022-07-23T06:03:04;27.30;99.90
45685;DHT22;46836;48.388;16.210;2022-07-23T06:05:31;27.20;99.90
45685;DHT22;46836;48.388;16.210;2022-07-23T06:07:58;27.10;99.90
45685;DHT22;46836;48.388;16.210;2022-07-23T06:10:25;27.00;99.90
45685;DHT22;46836;48.388;16.210;2022-07-23T06:12:52;26.90;99.90
45685;DHT22;46836;48.388;16.210;2022-07-23T06:15:27;26.80;99.90
45685;DHT22;46836;48.388;16.210;2022-07-23T06:17:54;26.70;99.90
45685;DHT22;46836;48.388;16.210;2022-07-23T06:20:21;26.70;99.90
45685;DHT22;46836;48.388;16.210;2022-07-23T06:22:48;26.70;99.90
45685;DHT22;46836;48.388;16.210;2022-07-23T06:25:15;26.60;99.90
45685;DHT22;46836;48.388;16.210;2022-07-23T06:27:46;26.70;99.90
45685;DHT22;46836;48.388;16.210;2022-07-23T06:30:14;26.80;99.90
45685;DHT22;46836;48.388;16.210;2022-07-23T06:32:45;26.90;99.90
45685;DHT22;46836;48.388;16.210;2022-07-23T06:35:12;27.00;99.90
45685;DHT22;46836;48.388;16.210;2022-07-23T06:37:40;27.00;99.90
45685;DHT22;46836;48.388;16.210;2022-07-23T06:40:07;27.10;99.90
45685;DHT22;46836;48.388;16.210;2022-07-23T06:42:34;27.20;99.90
45685;DHT22;46836;48.388;16.210;2022-07-23T06:45:05;27.30;99.90
45685;DHT22;46836;48.388;16.210;2022-07-23T06:47:32;27.40;99.90
45685;DHT22;46836;48.388;16.210;2022-07-23T06:50:00;27.40;99.90
45685;DHT22;46836;48.388;16.210;2022-07-23T06:52:27;27.50;99.90
45685;DHT22;46836;48.388;16.210;2022-07-23T06:54:54;27.50;99.90
45685;DHT22;46836;48.388;16.210;2022-07-23T06:57:21;27.60;99.90
45685;DHT22;46836;48.388;16.210;2022-07-23T06:59:48;27.70;99.90
45685;DHT22;46836;48.388;16.210;2022-07-23T07:02:21;27.70;99.90
45685;DHT22;46836;48.388;16.210;2022-07-23T07:04:49;27.80;99.90
45685;DHT22;46836;48.388;16.210;2022-07-23T07:07:16;28.00;99.90
45685;DHT22;46836;48.388;16.210;2022-07-23T07:09:43;28.20;99.90
45685;DHT22;46836;48.388;16.210;2022-07-23T07:12:14;28.30;99.90
45685;DHT22;46836;48.388;16.210;2022-07-23T07:14:41;28.50;99.90
45685;DHT22;46836;48.388;16.210;2022-07-23T07:17:08;28.60;99.90
45685;DHT22;46836;48.388;16.210;2022-07-23T07:19:37;28.70;99.90
45685;DHT22;46836;48.388;16.210;2022-07-23T07:22:04;28.90;99.90
45685;DHT22;46836;48.388;16.210;2022-07-23T07:24:31;28.90;99.90
45685;DHT22;46836;48.388;16.210;2022-07-23T07:27:04;29.00;99.90
45685;DHT22;46836;48.388;16.210;2022-07-23T07:29:31;29.10;99.90
45685;DHT22;46836;48.388;16.210;2022-07-23T07:31:59;29.30;99.90
45685;DHT22;46836;48.388;16.210;2022-07-23T07:34:27;29.30;99.90
45685;DHT22;46836;48.388;16.210;2022-07-23T07:36:54;29.40;99.90
45685;DHT22;46836;48.388;16.210;2022-07-23T07:39:21;29.40;99.90
45685;DHT22;46836;48.388;16.210;2022-07-23T07:41:49;29.40;99.90
45685;DHT22;46836;48.388;16.210;2022-07-23T07:44:16;29.40;99.90
45685;DHT22;46836;48.388;16.210;2022-07-23T07:46:43;29.50;99.90
45685;DHT22;46836;48.388;16.210;2022-07-23T07:49:10;29.40;99.90
45685;DHT22;46836;48.388;16.210;2022-07-23T07:51:42;29.50;99.90
45685;DHT22;46836;48.388;16.210;2022-07-23T07:54:12;29.40;99.90
45685;DHT22;46836;48.388;16.210;2022-07-23T07:56:39;29.40;99.90
45685;DHT22;46836;48.388;16.210;2022-07-23T07:59:07;29.30;99.90
45685;DHT22;46836;48.388;16.210;2022-07-23T08:01:36;29.30;99.90
45685;DHT22;46836;48.388;16.210;2022-07-23T08:04:03;29.20;99.90
45685;DHT22;46836;48.388;16.210;2022-07-23T08:06:32;29.20;99.90
45685;DHT22;46836;48.388;16.210;2022-07-23T08:08:59;29.30;99.90
45685;DHT22;46836;48.388;16.210;2022-07-23T08:11:26;29.40;99.90
45685;DHT22;46836;48.388;16.210;2022-07-23T08:13:53;29.50;99.90
45685;DHT22;46836;48.388;16.210;2022-07-23T08:16:20;29.60;99.90
45685;DHT22;46836;48.388;16.210;2022-07-23T08:18:47;29.60;99.90
45685;DHT22;46836;48.388;16.210;2022-07-23T08:21:14;29.70;99.90
45685;DHT22;46836;48.388;16.210;2022-07-23T08:23:41;29.70;99.90
45685;DHT22;46836;48.388;16.210;2022-07-23T08:26:08;29.80;99.90
45685;DHT22;46836;48.388;16.210;2022-07-23T08:28:35;29.90;99.90
45685;DHT22;46836;48.388;16.210;2022-07-23T08:31:02;29.90;99.90
45685;DHT22;46836;48.388;16.210;2022-07-23T08:33:32;30.00;99.90
45685;DHT22;46836;48.388;16.210;2022-07-23T08:36:02;30.00;99.90
45685;DHT22;46836;48.388;16.210;2022-07-23T08:38:31;30.00;99.90
45685;DHT22;46836;48.388;16.210;2022-07-23T08:40:59;30.00;99.90
45685;DHT22;46836;48.388;16.210;2022-07-23T08:43:30;30.00;99.90
45685;DHT22;46836;48.388;16.210;2022-07-23T08:45:59;30.10;99.90
45685;DHT22;46836;48.388;16.210;2022-07-23T08:48:31;30.20;99.90
45685;DHT22;46836;48.388;16.210;2022-07-23T08:51:01;30.30;99.90
45685;DHT22;46836;48.388;16.210;2022-07-23T08:53:30;30.50;99.90
45685;DHT22;46836;48.388;16.210;2022-07-23T08:55:59;30.60;99.90
45685;DHT22;46836;48.388;16.210;2022-07-23T08:58:29;30.80;99.90
45685;DHT22;46836;48.388;16.210;2022-07-23T09:00:57;30.80;99.90
45685;DHT22;46836;48.388;16.210;2022-07-23T09:03:30;30.80;99.90
45685;DHT22;46836;48.388;16.210;2022-07-23T09:05:58;30.90;99.90
45685;DHT22;46836;48.388;16.210;2022-07-23T09:08:37;30.90;99.90
45685;DHT22;46836;48.388;16.210;2022-07-23T09:11:06;31.10;99.90
45685;DHT22;46836;48.388;16.210;2022-07-23T09:13:50;31.10;99.90
45685;DHT22;46836;48.388;16.210;2022-07-23T09:16:30;31.20;99.90
45685;DHT22;46836;48.388;16.210;2022-07-23T09:19:04;31.40;99.90
45685;DHT22;46836;48.388;16.210;2022-07-23T09:21:34;31.50;99.90
45685;DHT22;46836;48.388;16.210;2022-07-23T09:24:05;31.60;99.90
45685;DHT22;46836;48.388;16.210;2022-07-23T09:26:37;31.70;99.90
45685;DHT22;46836;48.388;16.210;2022-07-23T09:29:19;31.70;99.90
45685;DHT22;46836;48.388;16.210;2022-07-23T09:31:52;31.70;99.90
45685;DHT22;46836;48.388;16.210;2022-07-23T09:34:24;31.80;99.90
45685;DHT22;46836;48.388;16.210;2022-07-23T09:36:57;31.80;99.90
45685;DHT22;46836;48.388;16.210;2022-07-23T09:39:32;31.80;99.90
45685;DHT22;46836;48.388;16.210;2022-07-23T09:42:20;31.90;99.80
45685;DHT22;46836;48.388;16.210;2022-07-23T09:44:52;31.90;99.50
45685;DHT22;46836;48.388;16.210;2022-07-23T09:47:20;32.10;99.90
45685;DHT22;46836;48.388;16.210;2022-07-23T09:52:33;32.30;98.00
45685;DHT22;46836;48.388;16.210;2022-07-23T09:55:06;32.40;98.70
45685;DHT22;46836;48.388;16.210;2022-07-23T09:57:33;32.50;98.20
45685;DHT22;46836;48.388;16.210;2022-07-23T10:00:04;32.50;98.40
45685;DHT22;46836;48.388;16.210;2022-07-23T10:02:33;32.60;98.50
45685;DHT22;46836;48.388;16.210;2022-07-23T10:05:02;32.60;98.60
45685;DHT22;46836;48.388;16.210;2022-07-23T10:07:34;32.70;98.40
45685;DHT22;46836;48.388;16.210;2022-07-23T10:10:03;32.90;98.00
45685;DHT22;46836;48.388;16.210;2022-07-23T10:12:31;32.90;97.60
45685;DHT22;46836;48.388;16.210;2022-07-23T10:15:01;32.80;97.30
45685;DHT22;46836;48.388;16.210;2022-07-23T10:17:29;32.70;97.30
45685;DHT22;46836;48.388;16.210;2022-07-23T10:19:56;32.70;97.70
45685;DHT22;46836;48.388;16.210;2022-07-23T10:22:27;32.70;97.60
45685;DHT22;46836;48.388;16.210;2022-07-23T10:33:52;33.30;95.00
45685;DHT22;46836;48.388;16.210;2022-07-23T10:36:27;33.40;94.40
45685;DHT22;46836;48.388;16.210;2022-07-23T10:38:58;33.60;94.60
45685;DHT22;46836;48.388;16.210;2022-07-23T10:41:39;33.70;95.20
45685;DHT22;46836;48.388;16.210;2022-07-23T10:44:11;33.80;94.10
45685;DHT22;46836;48.388;16.210;2022-07-23T10:47:02;33.90;94.80
45685;DHT22;46836;48.388;16.210;2022-07-23T10:55:39;33.80;93.30
45685;DHT22;46836;48.388;16.210;2022-07-23T10:58:08;33.90;94.00
45685;DHT22;46836;48.388;16.210;2022-07-23T11:00:36;33.90;94.00
45685;DHT22;46836;48.388;16.210;2022-07-23T11:03:33;34.00;93.70
45685;DHT22;46836;48.388;16.210;2022-07-23T11:06:03;33.90;93.40
45685;DHT22;46836;48.388;16.210;2022-07-23T11:08:31;34.10;94.00
45685;DHT22;46836;48.388;16.210;2022-07-23T11:13:29;34.50;92.90
45685;DHT22;46836;48.388;16.210;2022-07-23T11:24:12;34.70;91.70
45685;DHT22;46836;48.388;16.210;2022-07-23T11:26:49;34.70;92.50
45685;DHT22;46836;48.388;16.210;2022-07-23T11:32:22;34.60;92.10
45685;DHT22;46836;48.388;16.210;2022-07-23T11:34:50;34.80;92.10
45685;DHT22;46836;48.388;16.210;2022-07-23T11:39:59;34.80;91.80
45685;DHT22;46836;48.388;16.210;2022-07-23T11:42:26;34.80;92.20
45685;DHT22;46836;48.388;16.210;2022-07-23T11:44:57;34.80;91.90
45685;DHT22;46836;48.388;16.210;2022-07-23T11:47:26;34.90;91.70
45685;DHT22;46836;48.388;16.210;2022-07-23T11:49:54;35.00;91.40
45685;DHT22;46836;48.388;16.210;2022-07-23T11:52:23;35.20;91.20
45685;DHT22;46836;48.388;16.210;2022-07-23T11:57:32;35.20;89.90
45685;DHT22;46836;48.388;16.210;2022-07-23T12:00:26;35.30;89.80
45685;DHT22;46836;48.388;16.210;2022-07-23T12:03:00;35.40;88.30
45685;DHT22;46836;48.388;16.210;2022-07-23T12:05:31;35.50;89.80
45685;DHT22;46836;48.388;16.210;2022-07-23T12:08:00;35.50;89.70
45685;DHT22;46836;48.388;16.210;2022-07-23T12:10:39;35.40;88.20
45685;DHT22;46836;48.388;16.210;2022-07-23T12:13:12;35.30;82.10
45685;DHT22;46836;48.388;16.210;2022-07-23T12:15:44;35.30;83.80
45685;DHT22;46836;48.388;16.210;2022-07-23T12:18:15;35.10;78.60
45685;DHT22;46836;48.388;16.210;2022-07-23T12:20:49;35.00;77.20
45685;DHT22;46836;48.388;16.210;2022-07-23T12:23:18;34.90;78.30
45685;DHT22;46836;48.388;16.210;2022-07-23T12:25:48;34.90;78.20
45685;DHT22;46836;48.388;16.210;2022-07-23T12:28:18;34.90;77.80
45685;DHT22;46836;48.388;16.210;2022-07-23T12:30:53;35.00;75.80
45685;DHT22;46836;48.388;16.210;2022-07-23T12:33:29;35.00;73.50
45685;DHT22;46836;48.388;16.210;2022-07-23T12:35:59;34.80;74.80
45685;DHT22;46836;48.388;16.210;2022-07-23T12:38:35;34.70;77.20
45685;DHT22;46836;48.388;16.210;2022-07-23T12:41:02;34.30;74.90
45685;DHT22;46836;48.388;16.210;2022-07-23T12:43:36;34.20;74.00
45685;DHT22;46836;48.388;16.210;2022-07-23T12:46:04;34.20;71.60
45685;DHT22;46836;48.388;16.210;2022-07-23T12:48:38;34.10;72.00
45685;DHT22;46836;48.388;16.210;2022-07-23T12:51:08;34.10;69.50
45685;DHT22;46836;48.388;16.210;2022-07-23T12:56:18;33.90;70.10
45685;DHT22;46836;48.388;16.210;2022-07-23T12:58:49;33.80;66.40
45685;DHT22;46836;48.388;16.210;2022-07-23T13:04:14;33.80;68.40
45685;DHT22;46836;48.388;16.210;2022-07-23T13:06:51;33.80;66.80
45685;DHT22;46836;48.388;16.210;2022-07-23T13:09:20;33.90;67.90
45685;DHT22;46836;48.388;16.210;2022-07-23T13:11:49;34.10;70.20
45685;DHT22;46836;48.388;16.210;2022-07-23T13:14:18;34.10;70.90
45685;DHT22;46836;48.388;16.210;2022-07-23T13:17:05;34.30;71.30
45685;DHT22;46836;48.388;16.210;2022-07-23T13:19:33;34.40;69.20
45685;DHT22;46836;48.388;16.210;2022-07-23T13:22:01;34.60;67.40
45685;DHT22;46836;48.388;16.210;2022-07-23T13:24:34;34.70;65.50
45685;DHT22;46836;48.388;16.210;2022-07-23T13:27:04;34.80;66.30
45685;DHT22;46836;48.388;16.210;2022-07-23T13:29:33;34.70;67.00
45685;DHT22;46836;48.388;16.210;2022-07-23T13:32:02;34.90;67.30
45685;DHT22;46836;48.388;16.210;2022-07-23T13:34:38;34.90;64.30
45685;DHT22;46836;48.388;16.210;2022-07-23T13:37:07;34.80;64.70
45685;DHT22;46836;48.388;16.210;2022-07-23T13:39:35;34.60;65.20
45685;DHT22;46836;48.388;16.210;2022-07-23T13:42:04;34.20;64.20
45685;DHT22;46836;48.388;16.210;2022-07-23T13:44:33;34.20;66.20
45685;DHT22;46836;48.388;16.210;2022-07-23T13:47:00;34.00;65.90
45685;DHT22;46836;48.388;16.210;2022-07-23T13:49:27;33.90;65.90
45685;DHT22;46836;48.388;16.210;2022-07-23T13:51:54;34.10;67.10
45685;DHT22;46836;48.388;16.210;2022-07-23T13:54:22;34.10;66.00
45685;DHT22;46836;48.388;16.210;2022-07-23T13:56:49;34.10;66.40
45685;DHT22;46836;48.388;16.210;2022-07-23T13:59:16;34.00;65.80
45685;DHT22;46836;48.388;16.210;2022-07-23T14:01:44;33.90;66.00
45685;DHT22;46836;48.388;16.210;2022-07-23T14:04:31;33.90;64.80
45685;DHT22;46836;48.388;16.210;2022-07-23T14:07:00;33.90;65.80
45685;DHT22;46836;48.388;16.210;2022-07-23T14:09:28;33.90;64.80
45685;DHT22;46836;48.388;16.210;2022-07-23T14:11:57;33.90;65.10
45685;DHT22;46836;48.388;16.210;2022-07-23T14:14:24;33.90;65.30
45685;DHT22;46836;48.388;16.210;2022-07-23T14:16:52;33.90;64.90
45685;DHT22;46836;48.388;16.210;2022-07-23T14:19:19;34.00;65.10
45685;DHT22;46836;48.388;16.210;2022-07-23T14:21:46;34.00;64.40
45685;DHT22;46836;48.388;16.210;2022-07-23T14:24:16;34.10;64.20
45685;DHT22;46836;48.388;16.210;2022-07-23T14:26:44;34.20;63.30
45685;DHT22;46836;48.388;16.210;2022-07-23T14:29:13;34.20;63.20
45685;DHT22;46836;48.388;16.210;2022-07-23T14:31:40;34.30;63.50
45685;DHT22;46836;48.388;16.210;2022-07-23T14:34:07;34.40;64.50
45685;DHT22;46836;48.388;16.210;2022-07-23T14:36:34;34.60;64.00
45685;DHT22;46836;48.388;16.210;2022-07-23T14:39:05;34.70;65.10
45685;DHT22;46836;48.388;16.210;2022-07-23T14:41:36;34.70;65.90
45685;DHT22;46836;48.388;16.210;2022-07-23T14:44:03;34.70;66.70
45685;DHT22;46836;48.388;16.210;2022-07-23T14:46:31;34.70;67.70
45685;DHT22;46836;48.388;16.210;2022-07-23T14:48:59;34.70;68.00
45685;DHT22;46836;48.388;16.210;2022-07-23T14:51:27;34.70;68.50
45685;DHT22;46836;48.388;16.210;2022-07-23T14:53:54;34.90;70.20
45685;DHT22;46836;48.388;16.210;2022-07-23T14:56:22;34.90;68.70
45685;DHT22;46836;48.388;16.210;2022-07-23T14:58:49;34.90;68.00
45685;DHT22;46836;48.388;16.210;2022-07-23T15:01:16;35.00;68.50
45685;DHT22;46836;48.388;16.210;2022-07-23T15:03:43;34.80;66.40
45685;DHT22;46836;48.388;16.210;2022-07-23T15:06:10;34.80;66.50
45685;DHT22;46836;48.388;16.210;2022-07-23T15:08:39;34.80;66.80
45685;DHT22;46836;48.388;16.210;2022-07-23T15:11:06;34.80;67.00
45685;DHT22;46836;48.388;16.210;2022-07-23T15:13:37;34.80;67.50
45685;DHT22;46836;48.388;16.210;2022-07-23T15:16:05;34.90;67.90
45685;DHT22;46836;48.388;16.210;2022-07-23T15:18:36;34.80;68.00
45685;DHT22;46836;48.388;16.210;2022-07-23T15:21:04;34.80;68.60
45685;DHT22;46836;48.388;16.210;2022-07-23T15:23:32;34.80;69.00
45685;DHT22;46836;48.388;16.210;2022-07-23T15:26:01;34.50;67.20
45685;DHT22;46836;48.388;16.210;2022-07-23T15:28:28;34.40;68.10
45685;DHT22;46836;48.388;16.210;2022-07-23T15:30:56;34.30;68.20
45685;DHT22;46836;48.388;16.210;2022-07-23T15:33:23;34.20;68.10
45685;DHT22;46836;48.388;16.210;2022-07-23T15:35:51;34.30;69.30
45685;DHT22;46836;48.388;16.210;2022-07-23T15:38:24;34.40;69.40
45685;DHT22;46836;48.388;16.210;2022-07-23T15:40:53;34.50;69.50
45685;DHT22;46836;48.388;16.210;2022-07-23T15:43:22;34.50;69.80
45685;DHT22;46836;48.388;16.210;2022-07-23T15:45:53;34.50;70.20
45685;DHT22;46836;48.388;16.210;2022-07-23T15:48:21;34.60;70.50
45685;DHT22;46836;48.388;16.210;2022-07-23T15:50:48;34.70;70.50
45685;DHT22;46836;48.388;16.210;2022-07-23T15:53:16;34.80;70.30
45685;DHT22;46836;48.388;16.210;2022-07-23T15:56:04;34.80;70.30
45685;DHT22;46836;48.388;16.210;2022-07-23T15:58:32;34.80;69.70
45685;DHT22;46836;48.388;16.210;2022-07-23T16:01:00;34.60;70.20
45685;DHT22;46836;48.388;16.210;2022-07-23T16:03:30;34.60;70.70
45685;DHT22;46836;48.388;16.210;2022-07-23T16:05:59;34.40;70.80
45685;DHT22;46836;48.388;16.210;2022-07-23T16:08:26;34.30;71.30